createdAt,value
2023-05-04T00:03:44.553Z,35.98
2023-05-04T00:08:46.245Z,36.18
2023-05-04T00:13:47.794Z,36.27
2023-05-04T00:18:49.275Z,36.46
2023-05-04T00:23:50.820Z,36.69
2023-05-04T00:28:52.318Z,36.67
2023-05-04T00:33:53.879Z,36.74
2023-05-04T00:38:55.497Z,37.01
2023-05-04T00:43:57.092Z,37.01
2023-05-04T00:49:04.356Z,37.03
2023-05-04T00:54:08.346Z,37.20
2023-05-04T00:59:09.955Z,37.47
2023-05-04T01:04:12.184Z,37.24
2023-05-04T01:09:52.365Z,37.56
2023-05-04T01:14:56.320Z,37.72
2023-05-04T01:19:57.889Z,38.09
2023-05-04T01:25:00.199Z,37.89
2023-05-04T01:30:08.964Z,37.87
2023-05-04T01:35:11.835Z,38.22
2023-05-04T01:40:13.382Z,38.15
2023-05-04T01:45:14.900Z,38.28
2023-05-04T01:50:16.544Z,38.44
2023-05-04T01:55:18.201Z,38.42
2023-05-04T02:00:19.910Z,38.79
2023-05-04T02:05:21.594Z,38.60
2023-05-04T02:10:23.701Z,38.75
2023-05-04T02:15:25.220Z,39.07
2023-05-04T02:20:26.790Z,39.04
2023-05-04T02:25:28.422Z,38.96
2023-05-04T02:30:30.007Z,39.27
2023-05-04T02:35:32.903Z,39.11
2023-05-04T02:40:34.450Z,39.13
2023-05-04T02:45:36.488Z,39.38
2023-05-04T02:50:38.067Z,39.66
2023-05-04T02:55:39.589Z,39.67
2023-05-04T03:00:41.249Z,39.67
2023-05-04T03:05:42.874Z,39.70
2023-05-04T03:10:45.677Z,39.89
2023-05-04T03:15:47.189Z,39.93
2023-05-04T03:20:48.829Z,40.33
2023-05-04T03:25:53.916Z,40.15
2023-05-04T03:30:55.811Z,39.82
2023-05-04T03:35:57.628Z,40.21
2023-05-04T03:40:59.194Z,40.18
2023-05-04T03:46:00.861Z,40.35
2023-05-04T03:51:02.752Z,40.62
2023-05-04T03:56:04.504Z,40.39
2023-05-04T04:01:07.117Z,40.59
2023-05-04T04:06:10.478Z,40.61
2023-05-04T04:11:12.823Z,40.73
2023-05-04T04:16:14.394Z,40.84
2023-05-04T04:21:15.968Z,41.08
2023-05-04T04:26:17.554Z,40.91
2023-05-04T04:31:19.824Z,41.28
2023-05-04T04:36:21.385Z,41.40
2023-05-04T04:41:23.211Z,41.67
2023-05-04T04:46:24.754Z,41.62
2023-05-04T04:51:26.494Z,41.72
2023-05-04T04:56:28.171Z,41.50
2023-05-04T05:01:29.952Z,41.73
2023-05-04T05:06:31.638Z,41.55
2023-05-04T05:11:33.230Z,41.66
2023-05-04T05:16:35.060Z,41.74
2023-05-04T05:21:36.870Z,41.92
2023-05-04T05:26:39.100Z,42.05
2023-05-04T05:31:41.344Z,42.15
2023-05-04T05:36:45.378Z,42.23
2023-05-04T05:41:47.559Z,42.33
2023-05-04T05:46:49.147Z,42.41
2023-05-04T05:51:54.716Z,42.33
2023-05-04T05:56:58.863Z,42.19
2023-05-04T06:02:02.130Z,42.17
2023-05-04T06:07:04.786Z,42.15
2023-05-04T06:12:12.296Z,42.23
2023-05-04T06:17:16.248Z,42.14
2023-05-04T06:22:18.989Z,41.97
2023-05-04T06:27:24.427Z,42.10
2023-05-04T06:32:31.606Z,41.98
2023-05-04T06:37:37.907Z,42.14
2023-05-04T06:42:46.327Z,41.91
2023-05-04T06:47:56.661Z,41.94
2023-05-04T06:53:15.575Z,41.86
2023-05-04T06:58:23.829Z,42.14
2023-05-04T07:03:32.597Z,42.25
2023-05-04T07:08:40.777Z,42.00
2023-05-04T07:13:48.530Z,41.83
2023-05-04T07:18:55.633Z,41.33
2023-05-04T07:24:02.915Z,41.42
2023-05-04T07:29:10.215Z,41.29
2023-05-04T07:34:19.262Z,41.37
2023-05-04T07:39:28.509Z,41.26
2023-05-04T07:44:36.943Z,41.24
2023-05-04T07:49:44.732Z,41.59
2023-05-04T07:54:55.496Z,41.03
2023-05-04T08:00:05.329Z,40.50
2023-05-04T08:05:22.730Z,40.73
2023-05-04T08:10:30.929Z,40.70
2023-05-04T08:15:39.263Z,40.55
2023-05-04T08:20:47.727Z,40.23
2023-05-04T08:25:56.582Z,40.32
2023-05-04T08:31:06.967Z,40.06
2023-05-04T08:36:13.618Z,40.32
2023-05-04T08:41:25.901Z,40.21
2023-05-04T08:46:36.965Z,40.13
2023-05-04T08:51:48.629Z,40.16
2023-05-04T08:56:57.773Z,39.97
2023-05-04T09:02:06.041Z,39.99
2023-05-04T09:07:13.560Z,39.28
2023-05-04T09:12:28.762Z,39.25
2023-05-04T09:17:47.533Z,39.44
2023-05-04T09:23:10.197Z,39.27
2023-05-04T09:28:17.651Z,39.13
2023-05-04T09:33:29.325Z,39.18
2023-05-04T09:38:41.633Z,38.86
2023-05-04T09:43:49.151Z,39.05
2023-05-04T09:48:58.296Z,38.94
2023-05-04T09:54:10.529Z,38.64
2023-05-04T09:59:19.271Z,38.61
2023-05-04T10:04:27.731Z,38.24
2023-05-04T10:09:38.896Z,37.90
2023-05-04T10:14:50.781Z,37.10
2023-05-04T10:20:00.234Z,37.48
2023-05-04T10:25:17.838Z,37.10
2023-05-04T10:30:26.306Z,37.09
2023-05-04T10:35:35.285Z,36.58
2023-05-04T10:40:43.771Z,35.74
2023-05-04T10:45:51.505Z,35.98
2023-05-04T10:50:58.331Z,35.80
2023-05-04T10:56:05.839Z,35.23
2023-05-04T11:01:16.200Z,35.02
2023-05-04T11:06:26.675Z,34.37
2023-05-04T11:11:38.599Z,33.89
2023-05-04T11:16:45.699Z,33.92
2023-05-04T11:21:53.820Z,33.58
2023-05-04T11:27:01.688Z,32.98
2023-05-04T11:32:09.151Z,33.00
2023-05-04T11:37:17.753Z,33.18
2023-05-04T11:42:25.383Z,32.72
2023-05-04T11:47:31.929Z,32.79
2023-05-04T11:52:43.931Z,32.23
2023-05-04T11:58:00.403Z,31.52
2023-05-04T12:03:05.942Z,31.57
2023-05-04T12:08:14.258Z,31.14
2023-05-04T12:13:18.412Z,31.03
2023-05-04T12:18:23.145Z,31.40
2023-05-04T12:23:25.872Z,31.91
2023-05-04T12:28:29.712Z,31.23
2023-05-04T12:33:34.558Z,30.62
2023-05-04T12:38:38.403Z,29.92
2023-05-04T12:43:41.377Z,30.05
2023-05-04T12:48:44.028Z,28.99
2023-05-04T12:53:48.096Z,28.97
2023-05-04T12:58:52.061Z,27.25
2023-05-04T13:03:55.650Z,26.94
2023-05-04T13:08:57.779Z,26.52
2023-05-04T13:14:03.638Z,26.85
2023-05-04T13:19:07.142Z,26.67
2023-05-04T13:24:09.701Z,26.40
2023-05-04T13:29:11.704Z,25.38
2023-05-04T13:34:19.443Z,24.86
2023-05-04T13:39:22.844Z,25.35
2023-05-04T13:44:25.398Z,24.79
2023-05-04T13:49:30.568Z,24.93
2023-05-04T13:54:34.428Z,25.83
2023-05-04T13:59:36.063Z,26.30
2023-05-04T14:04:39.901Z,25.18
2023-05-04T14:09:41.762Z,24.19
2023-05-04T14:14:43.346Z,24.39
2023-05-04T14:19:45.689Z,24.36
2023-05-04T14:24:48.861Z,23.82
2023-05-04T14:29:52.024Z,22.16
2023-05-04T14:35:12.188Z,22.55
2023-05-04T14:40:15.783Z,21.36
2023-05-04T14:45:17.756Z,22.16
2023-05-04T14:50:21.758Z,21.99
2023-05-04T14:55:23.385Z,21.53
2023-05-04T15:00:26.376Z,21.68
2023-05-04T15:05:28.428Z,22.29
2023-05-04T15:10:32.804Z,21.28
2023-05-04T15:15:40.785Z,20.64
2023-05-04T15:20:44.033Z,20.61
2023-05-04T15:25:45.859Z,21.16
2023-05-04T15:30:47.572Z,20.61
2023-05-04T15:35:49.264Z,20.46
2023-05-04T15:40:51.724Z,21.00
2023-05-04T15:45:53.654Z,20.99
2023-05-04T15:50:55.303Z,20.92
2023-05-04T15:55:57.019Z,21.03
2023-05-04T16:00:59.841Z,20.40
2023-05-04T16:06:02.889Z,20.68
2023-05-04T16:11:07.366Z,21.19
2023-05-04T16:16:11.883Z,21.01
2023-05-04T16:21:15.362Z,20.98
2023-05-04T16:26:17.460Z,21.66
2023-05-04T16:31:22.135Z,21.23
2023-05-04T16:36:25.370Z,21.06
2023-05-04T16:41:30.650Z,21.54
2023-05-04T16:46:32.271Z,21.72
2023-05-04T16:51:34.002Z,21.79
2023-05-04T16:56:37.011Z,22.27
2023-05-04T17:01:39.395Z,21.75
2023-05-04T17:06:41.047Z,21.72
2023-05-04T17:11:42.845Z,21.60
2023-05-04T17:16:44.488Z,21.78
2023-05-04T17:21:46.286Z,22.15
2023-05-04T17:26:48.351Z,22.36
2023-05-04T17:31:50.243Z,22.31
2023-05-04T17:36:55.631Z,22.57
2023-05-04T17:42:02.029Z,22.70
2023-05-04T17:47:09.727Z,23.10
2023-05-04T17:52:17.518Z,23.12
2023-05-04T17:57:25.598Z,23.21
2023-05-04T18:02:32.917Z,23.03
2023-05-04T18:07:41.780Z,23.19
2023-05-04T18:12:49.040Z,23.21
2023-05-04T18:17:55.817Z,23.11
2023-05-04T18:23:03.193Z,23.33
2023-05-04T18:28:10.802Z,23.54
2023-05-04T18:33:18.184Z,24.16
2023-05-04T18:38:28.226Z,24.57
2023-05-04T18:43:35.415Z,24.73
2023-05-04T18:48:42.170Z,24.96
2023-05-04T18:53:49.699Z,24.72
2023-05-04T18:58:58.615Z,24.79
2023-05-04T19:04:09.426Z,25.01
2023-05-04T19:09:18.570Z,25.39
2023-05-04T19:14:28.796Z,25.87
2023-05-04T19:19:40.551Z,25.73
2023-05-04T19:24:52.692Z,25.93
2023-05-04T19:29:59.558Z,26.16
2023-05-04T19:35:08.880Z,26.65
2023-05-04T19:40:15.726Z,26.60
2023-05-04T19:45:23.641Z,26.99
2023-05-04T19:50:31.622Z,26.92
2023-05-04T19:55:39.058Z,26.87
2023-05-04T20:00:47.521Z,26.98
2023-05-04T20:05:55.559Z,27.18
2023-05-04T20:11:02.898Z,27.17
2023-05-04T20:16:10.102Z,27.43
2023-05-04T20:21:17.462Z,27.31
2023-05-04T20:26:25.348Z,27.40
2023-05-04T20:31:31.978Z,27.73
2023-05-04T20:36:39.195Z,27.64
2023-05-04T20:41:45.913Z,27.85
2023-05-04T20:46:54.126Z,27.92
2023-05-04T20:52:00.452Z,28.18
2023-05-04T20:57:08.659Z,28.39
2023-05-04T21:02:12.548Z,28.17
2023-05-04T21:07:18.142Z,27.78
2023-05-04T21:12:22.140Z,27.74
2023-05-04T21:17:27.418Z,27.66
2023-05-04T21:22:30.954Z,27.39
2023-05-04T21:27:33.652Z,27.33
2023-05-04T21:32:35.955Z,27.24
2023-05-04T21:37:37.997Z,27.29
2023-05-04T21:42:40.494Z,27.31
2023-05-04T21:47:44.299Z,27.14
2023-05-04T21:52:49.375Z,27.28
2023-05-04T21:57:51.571Z,27.49
2023-05-04T22:02:55.113Z,27.48
2023-05-04T22:07:56.960Z,27.43
2023-05-04T22:12:59.461Z,27.42
2023-05-04T22:18:01.174Z,27.25
2023-05-04T22:23:04.312Z,27.48
2023-05-04T22:28:09.048Z,27.87
2023-05-04T22:33:15.341Z,27.93
2023-05-04T22:38:18.866Z,27.68
2023-05-04T22:43:20.772Z,28.01
2023-05-04T22:48:22.516Z,28.04
2023-05-04T22:53:24.214Z,27.64
2023-05-04T22:58:25.813Z,28.16
2023-05-04T23:03:28.571Z,28.12
2023-05-04T23:08:30.869Z,28.06
2023-05-04T23:13:32.453Z,28.43
2023-05-04T23:18:34.050Z,28.50
2023-05-04T23:23:35.951Z,28.74
2023-05-04T23:28:38.151Z,28.98
2023-05-04T23:33:40.197Z,29.04
2023-05-04T23:38:41.965Z,29.23
2023-05-04T23:43:43.953Z,29.09
2023-05-04T23:48:46.610Z,29.35
2023-05-04T23:53:48.283Z,29.84
2023-05-04T23:58:51.920Z,29.76
